Laredo, TX

4:19 PM CDT on October 20, 2014 (GMT -0500)
Hogg County | Change Station
CLOSE
Current Station
Airport
Location: Hebbronville,
Elevation: 663 ft
Nearby Weather Stations

Elev 663 ft 27.35 °N, 98.74 °W | Updated 24 minutes ago

Partly Cloudy
Partly Cloudy
83 °F
Feels Like 84 °F
N
16
Wind Variable Wind from NE

Today
High -- | Low -- °F
--% Chance of Precip.
Yesterday
High -- | Low -- °F
Precip. -- in
7:40 AM 7:04 PM
Waning Crescent, 9% visible
Pressure 29.94 in
Visibility 10.0 miles
Clouds Scattered Clouds 4600 ft
Mostly Cloudy 5000 ft
Overcast 8000 ft
Heat Index 84 °F
Dew Point 63 °F
Humidity 51%
Rainfall 0.00 in
Snow Depth Not available.
UV 1 out of 12
Pollen 7.10 out of 12
Ozone Good
PM2.5 Good
Flu Activity Sporadic
METAR KHBV 202055Z AUTO 05014KT 10SM SCT046 BKN050 OVC080 28/17 A2994 RMK AO2 T02810171

More Conditions Fewer Conditions

Pressure 29.94 in
Visibility 10.0 miles
Clouds Scattered Clouds 4600 ft
Mostly Cloudy 5000 ft
Overcast 8000 ft
Heat Index 84 °F
Dew Point 63 °F
Humidity 51%
Rainfall 0.00 in
Snow Depth Not available.
UV 1 out of 12
Pollen 7.10 out of 12
Ozone Good
PM2.5 Good
Flu Activity Sporadic
METAR KHBV 202055Z AUTO 05014KT 10SM SCT046 BKN050 OVC080 28/17 A2994 RMK AO2 T02810171

More Conditions Fewer Conditions

Nowcast | as of 2:35 PM CDT on October 20, 2014

Isolated showers and thunderstorms will affect the brush country and the Victoria Crossroads this afternoon. Through 5 PM CDT...the thunderstorms will be capable of producing over an inch of rain in a short period. However...most locations that do receive rain will accumulate from a tenth to a half of an inch of measurable precipitation.

×

10-Day Weather Forecast

Almanac

Astronomy

Oct. 20, 2014 Rise Set
Actual Time 7:40 AM CDT 7:04 PM CDT
Civil Twilight 7:17 AM CDT 7:27 PM CDT
Nautical Twilight 6:49 AM CDT 7:55 PM CDT
Astronomical Twilight 6:22 AM CDT 8:22 PM CDT
Moon 4:46 AM CDT 5:13 PM CDT
Length of Visible Light 12h 10m
Length of Day
11h 23m
Waning Crescent, 9% of the Moon is Illuminated
Today
Waning Crescent
Oct 23
New
Oct 30
First Quarter
Nov 6
Full
Nov 14
Last Quarter

Today's Extremes

State Highs State Lows

Community

WunderPhotos

Upload Photos

1,763,510 photos uploaded!

WunderBlogs® & News

Nearby

Air Quality

  Air Quality AQ Index Pollutant
Yesterday Good
OZONE
Yesterday Good
PM2.5
Current Good
PM2.5
Current Good
OZONE
Monday Good
PM10
Monday Good
OZONE
Tuesday Good
PM10
Tuesday Good
OZONE
Wednesday Good
PM10
Wednesday Good
OZONE
Thursday Good
PM10
Thursday Good
OZONE

Snow Depth

Station Depth Elevation
No new snow has been reported.

Earthquake Activity

City Distance Mag. Time & Date
No recent earthquake activity has been reported nearby.
Minimum magnitude displayed is 2.5.

Coastal Water Temperatures

Place Temperature
No Stations Reporting

Nearby Weather Stations